Ana Sayfa
METAR-TAF:

METAR-TAF

Havaalanları :

Troy, Michigan, Amerika Birleşik Devletleri

Enlem: 42-32-35N, Boylam: 083-10-40W, yükseklik: 222 m

Güncel hava durumu gözlemi

Rapor saat 14:55 UTC de 16 dakika önce yapıldı.
Rüzgar batıdan 15 kt ve 19 kt'a kadar ani rüzgarlar
Sıcaklık -6°C
Nem 68%
Basınç 1012 hPa
Görüş mesafesi: 16.1 km
3300 ft yükseklikte çok bulutlu

METAR: KVLL 281455Z AUTO 28015G19KT 10SM OVC033 M06/M11 A2987 RMK AO2 T10581110

Saat: 10:11 (15:11 UTC)


TAF: eksik

4.000'den fazla havaalanı için hava durumu gözlemleri ve tahminleri (METAR ve TAF raporları).

Kullanılabilir istasyonlar harita üzerinde sarı ve kırmızı noktalarla gösterilir.

İstasyonun adını görmek için fareyi noktanın üzerinde gezdirin.

Sonrasında hava gözlem ve tahminlerini görmek için tıklayın.

Haritayı değiştirmek için: yaklaştırmak için siyah artı işaretli yeşil düğmeye ve uzaklaştırmak için de eksi işaretli düğmeye hızla tıklayın; bitişik haritalar için yeşil okları kullanın.


METAR-TAF: